EKYT/AAL METAR and TAF weather

Enter ICAO airport designator
Station Type Date Time Source
EKYT METAR 2022/01/26 14:20 UTC NOAA

EKYT 261420Z AUTO 27019KT 9999 BKN150/// 07/04 Q1015 TEMPO 27018G28KT


Station Type Date Time Source
EKYT Decoded METAR 2022/01/26 14:20 UTC NOAA

Aalborg, Denmark (EKYT) 57-06N 009-51E 13M
Jan 26, 2022 - 09:20 AM EST / 2022.01.26 1420 UTC
Wind: from the W (270 degrees) at 22 MPH (19 KT):0
Visibility: greater than 7 mile(s):0
Sky conditions: mostly cloudy
Temperature: 44 F (7 C)
Dew Point: 39 F (4 C)
Relative Humidity: 81%
Pressure (altimeter): 29.97 in. Hg (1015 hPa)
ob: EKYT 261420Z AUTO 27019KT 9999 BKN150/// 07/04 Q1015 TEMPO 27018G28KT
cycle: 14

Station Type Date Time Source
EKYT TAF 2022/01/26 13:45 UTC NOAA

TAF
AMD EKYT 261341Z 2613/2712 26018KT 9999 SCT020 SCT060
TEMPO 2613/2615 28020G30KT 6000 -SHRA SCT020TCU
BECMG 2622/2624 25020G30KT 4000 RADZ BKN008
TEMPO 2700/2706 8000 BKN012
BECMG 2706/2708 27028G40KT 9999 NSW SCT020TCU
BECMG 2709/2712 28035G50KT

Example: see airport list